Time;durP1;ratioP1;P1;durP2;ratioP2;P2;SDS_P1;SDS_P2;PMS_P1;PMS_P2;Temp;Humidity;BMP_temperature;BMP_pressure;BME280_temperature;BME280_humidity;BME280_pressure;Samples;Min_cycle;Max_cycle;Signal;HPM_P1;HPM_P2
2023/07/27 00:00:53;;;;;;;10.38;6.50;;;12.50;99.90;;;;;;6069216;23;20046;-83
2023/07/27 00:03:18;;;;;;;9.82;6.90;;;12.50;99.90;;;;;;6068925;23;20030;-83
2023/07/27 00:05:45;;;;;;;10.43;7.22;;;12.60;99.90;;;;;;6070037;23;20015;-83
2023/07/27 00:08:10;;;;;;;10.55;6.80;;;12.50;99.90;;;;;;6093103;23;20014;-83
2023/07/27 00:10:36;;;;;;;14.35;8.43;;;12.50;99.90;;;;;;6069737;23;20014;-82
2023/07/27 00:13:02;;;;;;;9.15;6.72;;;12.40;99.90;;;;;;6092828;23;20478;-82
2023/07/27 00:15:28;;;;;;;9.23;6.53;;;12.50;99.90;;;;;;6045937;23;20011;-83
2023/07/27 00:17:53;;;;;;;13.15;8.13;;;12.50;99.90;;;;;;6047461;23;20025;-82
2023/07/27 00:20:19;;;;;;;11.38;7.47;;;12.50;99.90;;;;;;6072135;23;20405;-82
2023/07/27 00:22:45;;;;;;;12.32;8.02;;;12.50;99.90;;;;;;6071877;23;20041;-82
2023/07/27 00:25:10;;;;;;;12.27;7.57;;;12.50;99.90;;;;;;6047813;23;20026;-82
2023/07/27 00:27:36;;;;;;;12.05;8.35;;;12.60;99.90;;;;;;6097012;23;20018;-82
2023/07/27 00:30:02;;;;;;;12.73;8.07;;;12.60;99.90;;;;;;6095958;23;20082;-83
2023/07/27 00:32:28;;;;;;;12.23;7.68;;;12.60;99.90;;;;;;6095423;23;20010;-82
2023/07/27 00:34:54;;;;;;;11.27;8.23;;;12.70;99.90;;;;;;6047847;23;20456;-82
2023/07/27 00:37:19;;;;;;;14.70;9.00;;;12.70;99.90;;;;;;6095640;23;20017;-82
2023/07/27 00:39:45;;;;;;;11.93;7.57;;;12.80;99.90;;;;;;6095899;23;20332;-82
2023/07/27 00:42:11;;;;;;;10.70;8.02;;;12.80;99.90;;;;;;6047523;23;20097;-82
2023/07/27 00:44:37;;;;;;;13.20;9.02;;;12.80;99.90;;;;;;6095408;23;20033;-83
2023/07/27 00:47:03;;;;;;;12.23;8.18;;;12.90;99.90;;;;;;6095214;23;20011;-83
2023/07/27 00:49:29;;;;;;;11.82;8.75;;;12.90;99.90;;;;;;6071636;23;20018;-83
2023/07/27 00:51:56;;;;;;;13.75;8.77;;;13.00;99.90;;;;;;6071705;23;20021;-82
2023/07/27 00:54:22;;;;;;;10.70;7.72;;;13.00;99.90;;;;;;6095085;23;20110;-82
2023/07/27 00:56:49;;;;;;;15.95;7.35;;;13.00;99.90;;;;;;6095579;23;20029;-83
2023/07/27 00:59:15;;;;;;;14.45;8.63;;;13.00;99.90;;;;;;6071374;23;20018;-83
2023/07/27 01:01:40;;;;;;;11.25;8.30;;;13.10;99.90;;;;;;6071414;23;20010;-83
2023/07/27 01:04:07;;;;;;;10.48;7.28;;;13.10;99.90;;;;;;6070884;23;20015;-83
2023/07/27 01:06:33;;;;;;;12.15;7.97;;;13.10;99.90;;;;;;6071161;23;20495;-83
2023/07/27 01:08:59;;;;;;;10.30;7.60;;;13.10;99.90;;;;;;6094794;23;20093;-82
2023/07/27 01:11:47;;;;;;;13.90;8.63;;;13.10;99.90;;;;;;6095253;23;20334;-83
2023/07/27 01:14:43;;;;;;;10.68;7.55;;;13.20;99.90;;;;;;6094292;23;20022;-83
2023/07/27 01:17:12;;;;;;;13.00;8.15;;;13.20;99.90;;;;;;6095059;23;20050;-83
2023/07/27 01:19:59;;;;;;;11.25;7.90;;;13.10;99.90;;;;;;6094927;23;20010;-83
2023/07/27 01:22:30;;;;;;;13.35;8.70;;;13.20;99.90;;;;;;6070911;23;20033;-83
2023/07/27 01:25:15;;;;;;;11.77;8.70;;;13.20;99.90;;;;;;6094422;23;20096;-83
2023/07/27 01:28:12;;;;;;;12.13;8.18;;;13.20;99.90;;;;;;6093713;23;20045;-82
2023/07/27 01:30:58;;;;;;;11.13;7.85;;;13.30;99.90;;;;;;6093447;23;20014;-83
2023/07/27 01:33:46;;;;;;;12.95;8.40;;;13.30;99.90;;;;;;6092751;23;20021;-83
2023/07/27 01:36:23;;;;;;;11.90;8.02;;;13.40;99.90;;;;;;6094289;23;20081;-83
2023/07/27 01:38:51;;;;;;;11.60;9.13;;;13.40;99.90;;;;;;6094062;23;20026;-83
2023/07/27 01:41:18;;;;;;;12.00;8.50;;;13.40;99.90;;;;;;6094716;23;20377;-83
2023/07/27 01:43:45;;;;;;;11.77;8.43;;;13.40;99.90;;;;;;6047149;23;20766;-83
2023/07/27 01:46:14;;;;;;;12.13;8.15;;;13.40;99.90;;;;;;6094874;23;20065;-83
2023/07/27 01:48:42;;;;;;;13.85;7.93;;;13.40;99.90;;;;;;6094891;23;20097;-83
2023/07/27 01:51:09;;;;;;;12.65;8.05;;;13.40;99.90;;;;;;6071249;23;20045;-83
2023/07/27 01:53:37;;;;;;;10.90;8.10;;;13.40;99.90;;;;;;6094130;23;20091;-83
2023/07/27 01:56:04;;;;;;;9.07;7.13;;;13.40;99.90;;;;;;6070696;23;20154;-83
2023/07/27 01:58:31;;;;;;;10.15;7.40;;;13.40;99.90;;;;;;6046550;23;20022;-83
2023/07/27 02:00:57;;;;;;;12.50;7.30;;;13.40;99.90;;;;;;6046798;23;20083;-83
2023/07/27 02:03:24;;;;;;;10.60;7.47;;;13.40;99.90;;;;;;6094468;23;20365;-83
2023/07/27 02:05:50;;;;;;;11.05;7.55;;;13.50;99.90;;;;;;6095970;23;20026;-82
2023/07/27 02:08:15;;;;;;;9.75;7.15;;;13.50;99.90;;;;;;6094579;23;20011;-83
2023/07/27 02:10:42;;;;;;;12.30;6.95;;;13.50;99.90;;;;;;6070584;23;20025;-83
2023/07/27 02:13:27;;;;;;;9.75;7.07;;;13.50;99.90;;;;;;6070325;23;20025;-83
2023/07/27 02:16:10;;;;;;;10.02;7.25;;;13.50;99.90;;;;;;6093928;23;20452;-83
2023/07/27 02:18:37;;;;;;;11.88;7.30;;;13.50;99.90;;;;;;6094289;23;20403;-83
2023/07/27 02:21:05;;;;;;;11.15;7.32;;;13.60;99.90;;;;;;6070018;23;20093;-83
2023/07/27 02:23:31;;;;;;;9.98;7.05;;;13.60;99.90;;;;;;6094142;23;20070;-83
2023/07/27 02:25:58;;;;;;;10.25;6.82;;;13.60;99.90;;;;;;6070571;23;20026;-83
2023/07/27 02:28:30;;;;;;;12.77;7.72;;;13.60;99.90;;;;;;6094688;23;20018;-83
2023/07/27 02:30:55;;;;;;;11.23;7.78;;;13.60;99.90;;;;;;6070626;23;20015;-83
2023/07/27 02:33:21;;;;;;;11.25;7.13;;;13.60;99.90;;;;;;6094235;23;20041;-83
2023/07/27 02:35:47;;;;;;;9.95;7.00;;;13.60;99.90;;;;;;6070194;23;20344;-83
2023/07/27 02:38:13;;;;;;;11.85;6.78;;;13.60;99.90;;;;;;6070006;23;20013;-83
2023/07/27 02:40:38;;;;;;;8.95;6.40;;;13.60;99.90;;;;;;6094247;23;20093;-83
2023/07/27 02:43:04;;;;;;;9.98;6.82;;;13.60;99.90;;;;;;6093908;23;20018;-83
2023/07/27 02:45:33;;;;;;;9.82;6.30;;;13.60;99.90;;;;;;6094089;23;20556;-83
2023/07/27 02:47:58;;;;;;;9.45;6.60;;;13.60;99.90;;;;;;6070250;23;20070;-83
2023/07/27 02:50:24;;;;;;;10.48;6.80;;;13.60;99.90;;;;;;6093958;23;20384;-83
2023/07/27 02:52:50;;;;;;;8.45;6.90;;;13.60;99.90;;;;;;6069753;23;20015;-82
2023/07/27 02:55:15;;;;;;;10.38;6.93;;;13.60;99.90;;;;;;6070310;23;20396;-83
2023/07/27 02:57:41;;;;;;;10.20;6.80;;;13.60;99.90;;;;;;6070263;23;20014;-83
2023/07/27 03:00:10;;;;;;;8.07;6.60;;;13.50;99.90;;;;;;6070657;23;20046;-83
2023/07/27 03:02:36;;;;;;;10.40;6.70;;;13.60;99.90;;;;;;6070810;23;20072;-83
2023/07/27 03:05:04;;;;;;;9.07;6.65;;;13.60;99.90;;;;;;6046372;23;20078;-83
2023/07/27 03:07:30;;;;;;;9.80;6.47;;;13.60;99.90;;;;;;6093419;23;20022;-83
2023/07/27 03:09:56;;;;;;;9.18;6.63;;;13.60;99.90;;;;;;6069345;23;20014;-83
2023/07/27 03:12:21;;;;;;;11.02;7.18;;;13.60;99.90;;;;;;6045049;23;20049;-83
2023/07/27 03:14:47;;;;;;;10.98;6.80;;;13.60;99.90;;;;;;6069726;23;20463;-83
2023/07/27 03:17:13;;;;;;;10.20;6.80;;;13.60;99.90;;;;;;6069087;23;20089;-82
2023/07/27 03:19:39;;;;;;;11.43;7.20;;;13.50;99.90;;;;;;6093506;23;20404;-83
2023/07/27 03:22:05;;;;;;;9.25;7.13;;;13.60;99.90;;;;;;6093388;23;20081;-82
2023/07/27 03:24:31;;;;;;;12.07;7.70;;;13.60;99.90;;;;;;6093650;23;20014;-82
2023/07/27 03:26:57;;;;;;;9.57;6.78;;;13.60;99.90;;;;;;6069811;23;20029;-83
2023/07/27 03:29:22;;;;;;;12.93;8.13;;;13.60;99.90;;;;;;6070257;23;20019;-83
2023/07/27 03:31:48;;;;;;;10.02;7.55;;;13.60;99.90;;;;;;6069764;23;20014;-82
2023/07/27 03:34:14;;;;;;;12.18;7.60;;;13.60;99.90;;;;;;6069470;23;20852;-81
2023/07/27 03:36:39;;;;;;;13.25;8.20;;;13.60;99.90;;;;;;6093750;23;20018;-82
2023/07/27 03:39:05;;;;;;;10.32;7.50;;;13.70;99.90;;;;;;6046295;23;20010;-83
2023/07/27 03:41:31;;;;;;;10.43;7.88;;;13.70;99.90;;;;;;6093667;23;20049;-82
2023/07/27 03:43:57;;;;;;;13.93;8.55;;;13.70;99.90;;;;;;6046053;23;20018;-83
2023/07/27 03:46:22;;;;;;;13.18;8.85;;;13.70;99.90;;;;;;6046046;23;20017;-82
2023/07/27 03:48:49;;;;;;;14.13;8.35;;;13.70;99.90;;;;;;6069867;23;20449;-82
2023/07/27 03:51:15;;;;;;;11.18;8.55;;;13.80;99.90;;;;;;6093442;23;20018;-83
2023/07/27 03:53:41;;;;;;;10.77;8.23;;;13.70;99.90;;;;;;6069720;23;20018;-83
2023/07/27 03:56:08;;;;;;;11.90;8.48;;;13.80;99.90;;;;;;6069701;23;20496;-82
2023/07/27 03:58:33;;;;;;;11.18;8.63;;;13.80;99.90;;;;;;6093450;23;20144;-82
2023/07/27 04:00:59;;;;;;;11.68;8.07;;;13.70;99.90;;;;;;6069602;23;20018;-83
2023/07/27 04:03:25;;;;;;;13.32;9.00;;;13.70;99.90;;;;;;6093853;23;20022;-82
2023/07/27 04:05:51;;;;;;;16.02;8.63;;;13.70;99.90;;;;;;6069528;23;20029;-82
2023/07/27 04:08:18;;;;;;;14.20;9.07;;;13.70;99.90;;;;;;6093375;23;20340;-82
2023/07/27 04:10:44;;;;;;;15.13;9.80;;;13.70;99.90;;;;;;6093557;23;20018;-83
2023/07/27 04:13:10;;;;;;;12.75;9.60;;;13.70;99.90;;;;;;6069065;23;20444;-82
2023/07/27 04:15:37;;;;;;;15.40;9.52;;;13.70;99.90;;;;;;6070428;23;20112;-82
2023/07/27 04:18:04;;;;;;;13.18;9.25;;;13.70;99.90;;;;;;6093339;23;20006;-82
2023/07/27 04:20:30;;;;;;;11.60;9.25;;;13.70;99.90;;;;;;6069214;23;20345;-82
2023/07/27 04:22:56;;;;;;;15.30;9.50;;;13.70;99.90;;;;;;6068035;23;20018;-81
2023/07/27 04:25:21;;;;;;;15.70;9.45;;;13.70;99.90;;;;;;6092042;23;20015;-81
2023/07/27 04:27:51;;;;;;;14.82;10.27;;;13.70;99.90;;;;;;6091336;23;20516;-81
2023/07/27 04:30:20;;;;;;;15.50;10.13;;;13.70;99.90;;;;;;6068435;23;20341;-80
2023/07/27 04:32:46;;;;;;;13.20;9.50;;;13.60;99.90;;;;;;6092685;23;20025;-80
2023/07/27 04:35:12;;;;;;;14.25;9.77;;;13.70;99.90;;;;;;6068742;23;20407;-80
2023/07/27 04:37:37;;;;;;;13.05;9.85;;;13.60;99.90;;;;;;6045587;23;20011;-80
2023/07/27 04:40:03;;;;;;;14.77;10.07;;;13.60;99.90;;;;;;6070245;23;20011;-80
2023/07/27 04:42:29;;;;;;;13.52;8.95;;;13.60;99.90;;;;;;6093723;23;20456;-82
2023/07/27 04:44:55;;;;;;;15.48;10.25;;;13.60;99.90;;;;;;6093554;23;20117;-82
2023/07/27 04:47:20;;;;;;;13.57;9.45;;;13.70;99.90;;;;;;6069517;23;20337;-82
2023/07/27 04:49:46;;;;;;;13.57;9.57;;;13.70;99.90;;;;;;6069384;23;20071;-81
2023/07/27 04:52:12;;;;;;;14.93;9.45;;;13.70;99.90;;;;;;6068935;23;20014;-81
2023/07/27 04:54:38;;;;;;;11.93;8.98;;;13.70;99.90;;;;;;6069041;23;20018;-79
2023/07/27 04:57:04;;;;;;;14.02;9.18;;;13.70;99.90;;;;;;6068254;23;20022;-80
2023/07/27 04:59:29;;;;;;;11.43;8.70;;;13.70;99.90;;;;;;6069137;23;20022;-81
2023/07/27 05:01:55;;;;;;;13.30;9.10;;;13.70;99.90;;;;;;6069077;23;20801;-81
2023/07/27 05:04:21;;;;;;;12.45;9.65;;;13.70;99.90;;;;;;6071343;23;20344;-80
2023/07/27 05:06:46;;;;;;;15.98;9.90;;;13.70;99.90;;;;;;6095803;23;20014;-81
2023/07/27 05:09:12;;;;;;;13.32;9.85;;;13.70;99.90;;;;;;6094735;23;20022;-81
2023/07/27 05:11:38;;;;;;;12.98;9.20;;;13.70;99.90;;;;;;6047688;23;20340;-80
2023/07/27 05:14:03;;;;;;;14.43;10.35;;;13.70;99.90;;;;;;6070952;23;20074;-82
2023/07/27 05:16:30;;;;;;;13.90;9.73;;;13.70;99.90;;;;;;6071446;23;20033;-81
2023/07/27 05:18:57;;;;;;;14.02;9.90;;;13.70;99.90;;;;;;6094922;23;20032;-81
2023/07/27 05:21:23;;;;;;;14.07;9.90;;;13.70;99.90;;;;;;6071313;23;20014;-81
2023/07/27 05:23:49;;;;;;;11.23;8.73;;;13.80;99.90;;;;;;6070824;23;20089;-80
2023/07/27 05:26:15;;;;;;;14.95;9.45;;;13.80;99.90;;;;;;6071211;23;20014;-81
2023/07/27 05:28:40;;;;;;;13.35;9.82;;;13.80;99.90;;;;;;6070336;23;20122;-79
2023/07/27 05:31:07;;;;;;;14.13;9.65;;;13.80;99.90;;;;;;6070945;23;20553;-80
2023/07/27 05:33:33;;;;;;;13.50;9.55;;;13.80;99.90;;;;;;6070243;23;20021;-79
2023/07/27 05:35:59;;;;;;;12.05;8.82;;;13.90;99.90;;;;;;6070980;23;20023;-80
2023/07/27 05:38:24;;;;;;;14.35;9.13;;;13.90;99.90;;;;;;6070596;23;20010;-80
2023/07/27 05:40:50;;;;;;;13.27;9.45;;;14.00;99.90;;;;;;6047068;23;20065;-79
2023/07/27 05:43:16;;;;;;;11.82;8.90;;;13.90;99.90;;;;;;6094390;23;20419;-79
2023/07/27 05:45:41;;;;;;;11.98;9.10;;;14.00;99.90;;;;;;6071298;23;20018;-79
2023/07/27 05:48:07;;;;;;;11.57;8.88;;;14.00;99.90;;;;;;6094220;23;20045;-80
2023/07/27 05:50:34;;;;;;;13.75;8.75;;;14.00;99.90;;;;;;6046125;23;20025;-79
2023/07/27 05:53:00;;;;;;;10.52;8.35;;;14.10;99.90;;;;;;6093500;23;20077;-79
2023/07/27 05:55:25;;;;;;;10.85;7.78;;;14.10;99.90;;;;;;6070642;23;20018;-79
2023/07/27 05:57:51;;;;;;;10.57;7.75;;;14.10;99.90;;;;;;6093681;23;20381;-79
2023/07/27 06:00:17;;;;;;;13.15;8.32;;;14.10;99.90;;;;;;6046606;23;20023;-79
2023/07/27 06:02:43;;;;;;;11.13;8.52;;;14.20;99.90;;;;;;6069249;23;20054;-79
2023/07/27 06:05:09;;;;;;;10.43;8.07;;;14.20;99.90;;;;;;6092950;23;20022;-79
2023/07/27 06:07:34;;;;;;;10.57;8.32;;;14.20;99.90;;;;;;6069695;23;20018;-79
2023/07/27 06:10:00;;;;;;;10.60;7.90;;;14.20;99.90;;;;;;6093126;23;20097;-78
2023/07/27 06:12:26;;;;;;;10.77;8.13;;;14.20;99.90;;;;;;6068326;23;20018;-78
2023/07/27 06:14:52;;;;;;;13.38;9.23;;;14.30;99.90;;;;;;6091377;23;20011;-78
2023/07/27 06:17:17;;;;;;;13.45;9.23;;;14.30;99.90;;;;;;6092489;23;20345;-78
2023/07/27 06:19:43;;;;;;;15.27;10.23;;;14.30;99.90;;;;;;6068342;23;20021;-79
2023/07/27 06:22:09;;;;;;;11.82;8.98;;;14.30;99.90;;;;;;6092802;23;20026;-79
2023/07/27 06:24:34;;;;;;;14.85;10.15;;;14.40;99.90;;;;;;6091221;23;20022;-78
2023/07/27 06:27:00;;;;;;;13.45;9.77;;;14.40;99.90;;;;;;6092140;23;20018;-77
2023/07/27 06:29:26;;;;;;;15.23;10.75;;;14.40;99.90;;;;;;6091348;23;20097;-78
2023/07/27 06:31:51;;;;;;;16.23;10.23;;;14.50;99.90;;;;;;6092222;23;20356;-78
2023/07/27 06:34:17;;;;;;;15.23;10.20;;;14.60;99.90;;;;;;6067631;23;20022;-78
2023/07/27 06:36:43;;;;;;;13.38;10.57;;;14.60;99.90;;;;;;6092614;23;20014;-79
2023/07/27 06:39:09;;;;;;;14.85;10.95;;;14.60;99.90;;;;;;6088659;23;20022;-78
2023/07/27 06:41:35;;;;;;;15.15;10.77;;;14.60;99.90;;;;;;6082115;23;20169;-78
2023/07/27 06:44:00;;;;;;;17.45;11.85;;;14.60;99.90;;;;;;6060548;23;20022;-79
2023/07/27 06:46:26;;;;;;;17.48;11.68;;;14.60;99.90;;;;;;6062395;23;20389;-78
2023/07/27 06:48:52;;;;;;;17.95;12.32;;;14.70;99.90;;;;;;6062444;23;20025;-78
2023/07/27 06:51:19;;;;;;;16.52;11.98;;;14.60;99.90;;;;;;6086870;23;20025;-77
2023/07/27 06:53:44;;;;;;;13.00;11.02;;;14.60;99.90;;;;;;6086093;23;20023;-78
2023/07/27 06:56:10;;;;;;;15.80;12.85;;;14.60;99.90;;;;;;6062843;23;20085;-79
2023/07/27 06:58:36;;;;;;;17.13;11.95;;;14.60;99.90;;;;;;6085541;23;20018;-78
2023/07/27 07:01:02;;;;;;;12.82;11.18;;;14.70;99.90;;;;;;6062254;23;20049;-78
2023/07/27 07:03:28;;;;;;;14.90;11.82;;;14.70;99.90;;;;;;6086146;23;20014;-80
2023/07/27 07:05:54;;;;;;;18.27;12.75;;;14.70;99.90;;;;;;6062507;23;20022;-77
2023/07/27 07:08:20;;;;;;;17.80;12.50;;;14.80;99.90;;;;;;6061859;23;20054;-79
2023/07/27 07:10:46;;;;;;;14.07;12.35;;;14.80;99.90;;;;;;6062400;23;20023;-77
2023/07/27 07:13:12;;;;;;;12.40;11.10;;;14.80;99.90;;;;;;6085335;23;20661;-76
2023/07/27 07:15:38;;;;;;;16.52;12.00;;;14.90;99.90;;;;;;6085510;23;20065;-79
2023/07/27 07:18:03;;;;;;;12.55;10.30;;;14.90;99.90;;;;;;6086074;23;20556;-78
2023/07/27 07:20:29;;;;;;;11.98;9.95;;;14.90;99.90;;;;;;6085841;23;20019;-78
2023/07/27 07:22:55;;;;;;;12.80;10.60;;;14.90;99.90;;;;;;6085984;23;20018;-78
2023/07/27 07:25:21;;;;;;;11.85;8.82;;;14.90;99.90;;;;;;6085878;23;20313;-79
2023/07/27 07:27:47;;;;;;;11.73;9.88;;;14.90;99.90;;;;;;6062967;23;20018;-79
2023/07/27 07:30:13;;;;;;;13.77;9.15;;;14.90;99.90;;;;;;6085720;23;20102;-78
2023/07/27 07:32:39;;;;;;;13.05;8.55;;;14.90;99.90;;;;;;6061971;23;20029;-78
2023/07/27 07:35:05;;;;;;;11.48;8.85;;;14.90;99.90;;;;;;6085838;23;20022;-78
2023/07/27 07:37:31;;;;;;;11.05;8.63;;;15.00;99.90;;;;;;6060864;23;20049;-79
2023/07/27 07:39:57;;;;;;;10.45;7.35;;;15.00;99.90;;;;;;6036469;23;20025;-77
2023/07/27 07:42:23;;;;;;;9.65;8.05;;;15.00;99.90;;;;;;6085824;23;20500;-79
2023/07/27 07:44:48;;;;;;;11.43;8.25;;;15.00;99.90;;;;;;6060698;23;20024;-79
2023/07/27 07:47:14;;;;;;;9.93;7.90;;;15.00;99.90;;;;;;6062732;23;20018;-80
2023/07/27 07:49:40;;;;;;;10.23;8.02;;;15.10;99.90;;;;;;6062738;23;20025;-78
2023/07/27 07:52:06;;;;;;;8.65;7.63;;;15.10;99.90;;;;;;6061182;23;20026;-78
2023/07/27 07:54:34;;;;;;;9.43;8.00;;;15.10;99.90;;;;;;6086529;23;20025;-78
2023/07/27 07:57:00;;;;;;;8.77;7.50;;;15.10;99.90;;;;;;6085706;23;20026;-79
2023/07/27 07:59:26;;;;;;;9.30;8.15;;;15.10;99.90;;;;;;6060859;23;20337;-79
2023/07/27 08:01:52;;;;;;;9.63;7.70;;;15.10;99.90;;;;;;6063161;23;20033;-78
2023/07/27 08:04:18;;;;;;;8.85;6.72;;;15.20;99.90;;;;;;6062487;23;20018;-78
2023/07/27 08:06:45;;;;;;;7.32;6.35;;;15.20;99.90;;;;;;6062096;23;20025;-80
2023/07/27 08:09:11;;;;;;;7.50;5.93;;;15.10;99.90;;;;;;6085582;23;20037;-79
2023/07/27 08:11:41;;;;;;;9.32;7.22;;;15.20;99.90;;;;;;6085898;23;20381;-78
2023/07/27 08:14:10;;;;;;;10.73;7.30;;;15.20;99.90;;;;;;6085193;23;20019;-78
2023/07/27 08:16:36;;;;;;;7.35;6.57;;;15.20;99.90;;;;;;6061842;23;20054;-81
2023/07/27 08:19:02;;;;;;;7.22;6.53;;;15.20;99.90;;;;;;6084831;23;20025;-79
2023/07/27 08:21:28;;;;;;;7.32;6.53;;;15.20;99.90;;;;;;6062250;23;20014;-80
2023/07/27 08:23:54;;;;;;;9.15;8.18;;;15.20;99.90;;;;;;6086191;23;20019;-79
2023/07/27 08:26:20;;;;;;;9.00;8.10;;;15.20;99.90;;;;;;6062328;23;20060;-80
2023/07/27 08:28:47;;;;;;;9.20;8.30;;;15.20;99.90;;;;;;6086630;23;20082;-80
2023/07/27 08:31:13;;;;;;;10.10;9.05;;;15.20;99.90;;;;;;6086548;23;20018;-79
2023/07/27 08:33:39;;;;;;;8.90;8.07;;;15.20;99.90;;;;;;6085767;23;20023;-77
2023/07/27 08:36:05;;;;;;;10.52;9.45;;;15.20;99.90;;;;;;6062135;23;20049;-79
2023/07/27 08:38:31;;;;;;;9.40;8.48;;;15.30;99.90;;;;;;6063488;23;20014;-79
2023/07/27 08:40:58;;;;;;;8.60;7.90;;;15.30;99.90;;;;;;6087347;23;20025;-81
2023/07/27 08:43:25;;;;;;;9.77;8.77;;;15.30;99.90;;;;;;6064306;23;20029;-80
2023/07/27 08:45:51;;;;;;;9.68;8.68;;;15.40;99.90;;;;;;6088057;23;20025;-80
2023/07/27 08:48:17;;;;;;;9.07;8.27;;;15.40;99.90;;;;;;6087835;23;20100;-79
2023/07/27 08:50:45;;;;;;;8.52;7.82;;;15.50;99.90;;;;;;6063059;23;20110;-79
2023/07/27 08:53:12;;;;;;;8.02;7.35;;;15.50;99.90;;;;;;6087707;23;20046;-79
2023/07/27 08:55:41;;;;;;;7.95;7.15;;;15.50;99.90;;;;;;6064118;23;20019;-78
2023/07/27 08:58:08;;;;;;;9.75;8.85;;;15.50;99.90;;;;;;6088056;23;20445;-80
2023/07/27 09:00:34;;;;;;;9.10;8.23;;;15.50;99.90;;;;;;6087428;23;20392;-80
2023/07/27 09:03:00;;;;;;;8.82;8.02;;;15.50;99.90;;;;;;6064435;23;20061;-80
2023/07/27 09:05:43;;;;;;;8.68;7.88;;;15.50;99.90;;;;;;6064407;23;20014;-79
2023/07/27 09:08:13;;;;;;;8.30;7.55;;;15.50;99.90;;;;;;6065023;23;20476;-80
2023/07/27 09:10:41;;;;;;;7.30;6.70;;;15.50;99.90;;;;;;6088110;23;20022;-79
2023/07/27 09:13:07;;;;;;;7.90;7.28;;;15.50;99.90;;;;;;6064811;23;20014;-80
2023/07/27 09:15:33;;;;;;;8.88;8.07;;;15.50;99.90;;;;;;6087605;23;20010;-80
2023/07/27 09:18:01;;;;;;;8.68;7.97;;;15.60;99.90;;;;;;6064307;23;20479;-79
2023/07/27 09:20:28;;;;;;;9.88;8.32;;;15.60;99.90;;;;;;6087317;23;20018;-80
2023/07/27 09:22:57;;;;;;;8.43;7.72;;;15.60;99.90;;;;;;6088814;23;20030;-79
2023/07/27 09:25:23;;;;;;;8.77;7.93;;;15.70;99.90;;;;;;6065295;23;20069;-80
2023/07/27 09:27:53;;;;;;;9.35;8.50;;;15.80;99.90;;;;;;6088956;23;20022;-79
2023/07/27 09:30:19;;;;;;;8.07;7.38;;;15.80;99.90;;;;;;6087848;23;20044;-79
2023/07/27 09:32:47;;;;;;;8.02;7.30;;;15.80;99.90;;;;;;6087917;23;20457;-78
2023/07/27 09:35:14;;;;;;;8.98;8.18;;;15.90;99.90;;;;;;6088474;23;20014;-79
2023/07/27 09:37:52;;;;;;;7.43;6.78;;;15.90;99.90;;;;;;6088258;23;20453;-79
2023/07/27 09:40:24;;;;;;;7.18;6.47;;;16.00;99.90;;;;;;6064191;23;20016;-81
2023/07/27 09:42:51;;;;;;;6.50;6.00;;;15.90;99.90;;;;;;6088715;23;20022;-80
2023/07/27 09:45:18;;;;;;;6.38;5.88;;;15.90;99.90;;;;;;6088320;23;20025;-81
2023/07/27 09:47:45;;;;;;;6.68;6.07;;;15.90;99.90;;;;;;6086223;23;20463;-79
2023/07/27 09:50:11;;;;;;;7.22;6.57;;;15.90;99.90;;;;;;6087189;23;20015;-80
2023/07/27 09:52:39;;;;;;;6.70;6.20;;;15.90;99.90;;;;;;6062903;23;20404;-81
2023/07/27 09:55:05;;;;;;;7.10;6.47;;;15.90;99.90;;;;;;6087037;23;20337;-79
2023/07/27 09:57:31;;;;;;;7.53;6.93;;;15.90;99.90;;;;;;6111474;23;20025;-80
2023/07/27 09:59:57;;;;;;;7.60;6.90;;;15.90;99.90;;;;;;6087697;23;20022;-80
2023/07/27 10:02:23;;;;;;;6.53;6.03;;;15.90;99.90;;;;;;6063900;23;20045;-80
2023/07/27 10:04:50;;;;;;;7.60;7.00;;;15.90;99.90;;;;;;6087913;23;20076;-80
2023/07/27 10:07:20;;;;;;;8.25;7.60;;;15.90;99.90;;;;;;6087900;23;20054;-80
2023/07/27 10:09:47;;;;;;;8.60;7.90;;;15.90;99.90;;;;;;6063430;23;20314;-79
2023/07/27 10:12:30;;;;;;;9.20;8.40;;;15.90;99.90;;;;;;6087152;23;20018;-79
2023/07/27 10:15:23;;;;;;;8.10;7.40;;;16.00;99.90;;;;;;6085890;23;20010;-79
2023/07/27 10:17:51;;;;;;;8.40;7.70;;;16.00;99.90;;;;;;6087024;23;20120;-80
2023/07/27 10:20:23;;;;;;;9.05;8.30;;;16.00;99.90;;;;;;6086470;23;20036;-80
2023/07/27 10:22:52;;;;;;;;;;;16.00;99.90;;;;;;6086588;23;20508;-80
2023/07/27 10:25:18;;;;;;;7.45;6.85;;;16.00;99.90;;;;;;6063727;23;19988;-80
2023/07/27 10:27:58;;;;;;;8.05;7.35;;;16.00;99.90;;;;;;6087717;23;20026;-80
2023/07/27 10:30:24;;;;;;;8.65;7.85;;;16.10;99.90;;;;;;6063794;23;20014;-81
2023/07/27 10:33:11;;;;;;;7.78;7.13;;;16.00;99.90;;;;;;6063814;23;20495;-80
2023/07/27 10:36:03;;;;;;;7.45;6.82;;;16.10;99.90;;;;;;6064387;23;20057;-80
2023/07/27 10:38:32;;;;;;;7.75;7.15;;;16.10;99.90;;;;;;6088193;23;20021;-81
2023/07/27 10:41:14;;;;;;;8.18;7.47;;;16.10;99.90;;;;;;6063839;23;20018;-80
2023/07/27 10:44:07;;;;;;;7.63;7.00;;;16.10;99.90;;;;;;6087808;23;20045;-80
2023/07/27 10:46:54;;;;;;;8.40;7.70;;;16.10;99.90;;;;;;6087856;23;20022;-81
2023/07/27 10:49:20;;;;;;;8.32;7.53;;;16.10;99.90;;;;;;6087388;23;20379;-80
2023/07/27 10:51:46;;;;;;;9.38;8.50;;;16.10;99.90;;;;;;6063760;23;20077;-81
2023/07/27 10:54:13;;;;;;;9.13;8.32;;;16.20;99.90;;;;;;6087484;23;20345;-81
2023/07/27 10:56:41;;;;;;;9.27;8.55;;;16.20;99.90;;;;;;6063928;23;20682;-81
2023/07/27 10:59:10;;;;;;;8.55;7.85;;;16.30;99.90;;;;;;6010861;23;20023;-81
2023/07/27 11:01:36;;;;;;;7.75;7.15;;;16.30;99.90;;;;;;6034765;23;20094;-81
2023/07/27 11:04:03;;;;;;;9.05;7.85;;;16.30;99.90;;;;;;6035303;23;20050;-82
2023/07/27 11:06:30;;;;;;;8.43;7.72;;;16.40;99.90;;;;;;6035065;23;20141;-81
2023/07/27 11:08:56;;;;;;;8.15;7.45;;;16.40;99.90;;;;;;6034554;23;20018;-81
2023/07/27 11:11:26;;;;;;;8.48;7.78;;;16.50;99.90;;;;;;6011994;23;20332;-82
2023/07/27 11:13:52;;;;;;;9.35;8.35;;;16.50;99.90;;;;;;6036181;23;20093;-81
2023/07/27 11:16:18;;;;;;;9.18;8.38;;;16.60;99.90;;;;;;6011754;23;20050;-81
2023/07/27 11:18:44;;;;;;;9.43;8.52;;;16.60;99.90;;;;;;6011181;23;20054;-81
2023/07/27 11:21:13;;;;;;;8.75;7.93;;;16.60;99.90;;;;;;6034521;23;20038;-81
2023/07/27 11:23:42;;;;;;;8.50;7.72;;;16.70;99.90;;;;;;6034796;23;20078;-81
2023/07/27 11:26:08;;;;;;;8.88;8.05;;;16.70;99.90;;;;;;6011626;23;20022;-80
2023/07/27 11:28:35;;;;;;;9.25;7.97;;;16.80;99.90;;;;;;6010500;23;20070;-80
2023/07/27 11:31:00;;;;;;;9.13;8.32;;;16.80;99.90;;;;;;6033873;23;20018;-81
2023/07/27 11:33:35;;;;;;;8.90;8.10;;;16.80;99.90;;;;;;6010942;23;20327;-80
2023/07/27 11:36:02;;;;;;;8.82;7.95;;;16.90;99.90;;;;;;6033986;23;20504;-80
2023/07/27 11:38:28;;;;;;;9.32;8.43;;;16.80;99.90;;;;;;6011187;23;20050;-80
2023/07/27 11:40:57;;;;;;;8.00;7.22;;;16.90;99.90;;;;;;6033803;23;20802;-79
2023/07/27 11:43:27;;;;;;;8.05;7.35;;;17.00;99.90;;;;;;6034531;23;20023;-80
2023/07/27 11:45:56;;;;;;;8.38;7.57;;;17.00;99.90;;;;;;6034819;23;20055;-80
2023/07/27 11:48:29;;;;;;;8.07;7.38;;;17.00;99.90;;;;;;6034486;23;20023;-80
2023/07/27 11:50:57;;;;;;;7.43;6.72;;;17.10;99.90;;;;;;6034050;23;20029;-81
2023/07/27 11:53:26;;;;;;;7.30;6.57;;;17.10;99.90;;;;;;6034762;23;20098;-81
2023/07/27 11:55:52;;;;;;;7.85;7.03;;;17.10;99.90;;;;;;6034628;23;20692;-79
2023/07/27 11:58:18;;;;;;;7.40;6.70;;;17.20;99.90;;;;;;6068170;23;20019;-80
2023/07/27 12:00:53;;;;;;;7.15;6.45;;;17.20;99.90;;;;;;6086520;23;20027;-80
2023/07/27 12:03:21;;;;;;;8.15;7.00;;;17.20;99.90;;;;;;6087153;23;20101;-80
2023/07/27 12:05:47;;;;;;;7.25;6.55;;;17.30;99.90;;;;;;6086501;23;20310;-78
2023/07/27 12:08:20;;;;;;;7.25;6.55;;;17.30;99.90;;;;;;6062567;23;20081;-78
2023/07/27 12:11:01;;;;;;;6.72;6.13;;;17.40;99.90;;;;;;6086154;23;20022;-79
2023/07/27 12:13:27;;;;;;;6.10;5.55;;;17.40;99.90;;;;;;6088699;23;20093;-79
2023/07/27 12:15:58;;;;;;;7.82;7.00;;;17.40;99.90;;;;;;6088514;23;20018;-79
2023/07/27 12:18:28;;;;;;;6.03;5.47;;;17.40;99.90;;;;;;6088280;23;20014;-80
2023/07/27 12:20:55;;;;;;;6.80;6.07;;;17.50;99.90;;;;;;6087322;23;20045;-79
2023/07/27 12:23:22;;;;;;;6.53;5.93;;;17.40;99.90;;;;;;6088039;23;20011;-78
2023/07/27 12:25:49;;;;;;;6.65;6.05;;;17.40;99.90;;;;;;6088146;23;20411;-78
2023/07/27 12:28:16;;;;;;;7.40;5.95;;;17.50;99.90;;;;;;6088056;23;20021;-78
2023/07/27 12:30:42;;;;;;;6.85;6.10;;;17.50;99.90;;;;;;6087316;23;20018;-80
2023/07/27 12:33:08;;;;;;;6.70;6.07;;;17.50;99.90;;;;;;6063645;23;20022;-79
2023/07/27 12:35:34;;;;;;;7.43;6.38;;;17.50;99.90;;;;;;6087479;23;20349;-79
2023/07/27 12:38:00;;;;;;;7.50;6.78;;;17.60;99.90;;;;;;6087547;23;20021;-79
2023/07/27 12:40:26;;;;;;;7.72;6.78;;;17.60;99.90;;;;;;6086846;23;20014;-79
2023/07/27 12:42:53;;;;;;;7.43;6.63;;;17.60;99.90;;;;;;6062325;23;20328;-80